Geddes, New York
Current Conditions -  °F | °C
As of 12:54 AM on Friday 31 Oct 2014 (Local Time) from KSYR Reporting Station
Broken Clouds Broken Clouds  
Wind Chill: 43°   Ceiling: 5500
Heat Index: 43°   Visibility: 10mi
Dew Point: 36°   Wind: 3mph
Humidity: 76%   Direction: 190°S
Pressure: 30.02"   Gusts: NA
Location:  43.0845°N, 76.247°W
Report Text: KSYR 310454Z 19003KT 10SM FEW033 BKN055 06/02 A3002 RMK AO2 RAB27E46 SLP165 BKN V OVC P0000 T00610022 400940044
Loading
Personal Weather Stations






























Interactive Weather Map
Tropical Storm Tracking
New forecast layout! Learn more

10-Day Weather Forecast

Advertisements
Track Severe Weather on mobile